createdAt,value
2017-10-27T00:00:17.973Z,90.8
2017-10-27T00:01:17.224Z,90.8
2017-10-27T00:02:15.994Z,90.3
2017-10-27T00:03:15.506Z,90.8
2017-10-27T00:04:14.646Z,90.8
2017-10-27T00:05:13.788Z,90.3
2017-10-27T00:06:13.064Z,90
2017-10-27T00:07:12.350Z,90.6
2017-10-27T00:08:11.363Z,89.9
2017-10-27T00:09:10.804Z,90.3
2017-10-27T00:10:09.815Z,90.5
2017-10-27T00:11:08.694Z,90.7
2017-10-27T00:12:08.210Z,90.3
2017-10-27T00:13:07.501Z,90.7
2017-10-27T00:14:06.523Z,90.9
2017-10-27T00:15:05.797Z,91.1
2017-10-27T00:16:04.809Z,91
2017-10-27T00:17:04.092Z,91.2
2017-10-27T00:18:03.114Z,91.4
2017-10-27T00:19:02.497Z,90.8
2017-10-27T00:20:01.779Z,91.2
2017-10-27T00:21:01.063Z,91.2
2017-10-27T00:22:00.364Z,91.1
2017-10-27T00:22:59.244Z,90.7
2017-10-27T00:23:58.379Z,90.7
2017-10-27T00:24:57.682Z,91
2017-10-27T00:25:56.952Z,90.7
2017-10-27T00:26:56.091Z,90.7
2017-10-27T00:27:55.227Z,90.9
2017-10-27T00:28:54.631Z,91.1
2017-10-27T00:29:53.633Z,91.2
2017-10-27T00:30:52.913Z,91.4
2017-10-27T00:31:52.057Z,91.5
2017-10-27T00:32:51.239Z,91.7
2017-10-27T00:33:50.253Z,91.6
2017-10-27T00:34:49.769Z,91.6
2017-10-27T00:35:48.543Z,91.7
2017-10-27T00:36:48.181Z,91.8
2017-10-27T00:37:46.962Z,91.9
2017-10-27T00:38:46.111Z,91.7
2017-10-27T00:39:45.502Z,91.9
2017-10-27T00:40:44.512Z,91.9
2017-10-27T00:41:44.169Z,92.1
2017-10-27T00:42:43.051Z,92.1
2017-10-27T00:43:42.325Z,91.9
2017-10-27T00:44:41.317Z,92
2017-10-27T00:45:40.451Z,91.8
2017-10-27T00:46:39.604Z,91.7
2017-10-27T00:47:39.239Z,91.8
2017-10-27T00:48:37.883Z,92
2017-10-27T00:49:37.520Z,92.1
2017-10-27T00:50:36.660Z,92.1
2017-10-27T00:52:35.048Z,92.2
2017-10-27T00:53:34.321Z,92.3
2017-10-27T00:54:33.457Z,92.4
2017-10-27T00:55:32.742Z,92.5
2017-10-27T00:56:31.483Z,92.6
2017-10-27T00:57:30.858Z,92.8
2017-10-27T00:58:30.114Z,92.7
2017-10-27T00:59:29.253Z,92.8
2017-10-27T01:00:28.125Z,92.9
2017-10-27T01:01:27.903Z,92.6
2017-10-27T01:02:26.808Z,92.6
2017-10-27T01:03:25.941Z,92.5
2017-10-27T01:05:24.199Z,92.8
2017-10-27T01:06:23.601Z,92.8
2017-10-27T01:07:22.873Z,92.8
2017-10-27T01:08:21.882Z,92.9
2017-10-27T01:09:21.030Z,92.8
2017-10-27T01:10:20.407Z,92.9
2017-10-27T01:11:19.679Z,92.7
2017-10-27T01:12:18.953Z,92.7
2017-10-27T01:13:17.720Z,92.8
2017-10-27T01:14:16.733Z,92.9
2017-10-27T01:15:16.106Z,93
2017-10-27T01:16:15.122Z,93
2017-10-27T01:17:14.503Z,93.2
2017-10-27T01:18:13.642Z,93.3
2017-10-27T01:19:12.926Z,93.4
2017-10-27T01:20:12.335Z,93.5
2017-10-27T01:21:11.339Z,93.8
2017-10-27T01:22:10.496Z,93.8
2017-10-27T01:23:09.873Z,94
2017-10-27T01:24:08.895Z,94.3
2017-10-27T01:25:07.924Z,94.3
2017-10-27T01:26:07.195Z,94.9
2017-10-27T01:27:06.444Z,94.9
2017-10-27T01:28:05.732Z,95.1
2017-10-27T01:29:05.108Z,95.1
2017-10-27T01:30:04.249Z,92.1
2017-10-27T01:31:03.395Z,92.8
2017-10-27T01:32:02.140Z,93.3
2017-10-27T01:33:01.281Z,92.2
2017-10-27T01:34:00.798Z,91.7
2017-10-27T01:34:31.251Z,91.7
2017-10-27T01:35:59.084Z,90.4
2017-10-27T01:36:58.498Z,90.7
2017-10-27T01:38:56.656Z,89.9
2017-10-27T01:39:55.928Z,90.2
2017-10-27T01:40:55.087Z,91.3
2017-10-27T01:41:54.239Z,91
2017-10-27T01:42:53.486Z,91.5
2017-10-27T01:43:52.760Z,92.3
2017-10-27T01:45:51.169Z,92.8
2017-10-27T01:46:50.181Z,93
2017-10-27T01:47:49.189Z,93.9
2017-10-27T01:48:19.512Z,93.9
2017-10-27T01:48:49.849Z,93.7
2017-10-27T01:49:47.496Z,94.1
2017-10-27T01:50:46.945Z,94.5
2017-10-27T01:51:46.219Z,94.6
2017-10-27T01:52:45.130Z,94.5
2017-10-27T01:53:44.524Z,94.4
2017-10-27T01:54:43.531Z,94.7
2017-10-27T01:55:42.541Z,94.9
2017-10-27T01:56:41.811Z,95.2
2017-10-27T01:57:40.816Z,95.5
2017-10-27T01:58:40.201Z,95.4
2017-10-27T01:59:39.347Z,95.6
2017-10-27T02:00:38.766Z,95.7
2017-10-27T02:01:37.671Z,95.5
2017-10-27T02:02:37.317Z,95.8
2017-10-27T02:03:36.323Z,95.7
2017-10-27T02:04:35.232Z,96.2
2017-10-27T02:05:34.604Z,95.7
2017-10-27T02:06:33.744Z,96
2017-10-27T02:07:32.751Z,95.5
2017-10-27T02:08:31.888Z,95.8
2017-10-27T02:09:31.408Z,95.9
2017-10-27T02:10:30.563Z,96.1
2017-10-27T02:11:29.476Z,96.3
2017-10-27T02:12:29.001Z,96.2
2017-10-27T02:13:27.878Z,95.6
2017-10-27T02:14:27.014Z,95.8
2017-10-27T02:15:26.147Z,95.8
2017-10-27T02:16:25.526Z,95.4
2017-10-27T02:16:55.984Z,95.4
2017-10-27T02:17:26.674Z,95.1
2017-10-27T02:19:22.916Z,95.6
2017-10-27T02:20:21.937Z,95
2017-10-27T02:21:21.312Z,94.8
2017-10-27T02:22:20.456Z,94.2
2017-10-27T02:23:19.967Z,94.6
2017-10-27T02:24:18.602Z,94.5
2017-10-27T02:25:18.125Z,94.7
2017-10-27T02:26:17.049Z,94.3
2017-10-27T02:26:47.134Z,94.3
2017-10-27T02:27:17.596Z,94.4
2017-10-27T02:27:48.053Z,94.4
2017-10-27T02:28:18.508Z,94.6
2017-10-27T02:28:48.966Z,94.6
2017-10-27T02:30:14.142Z,94.8
2017-10-27T02:31:12.926Z,95
2017-10-27T02:32:11.924Z,95.1
2017-10-27T02:33:11.066Z,94.9
2017-10-27T02:34:10.579Z,95.4
2017-10-27T02:35:09.862Z,95
2017-10-27T02:36:08.632Z,95.2
2017-10-27T02:38:07.285Z,95.4
2017-10-27T02:39:06.419Z,94.7
2017-10-27T02:40:05.330Z,95.1
2017-10-27T02:41:04.977Z,94.9
2017-10-27T02:42:03.620Z,95
2017-10-27T02:43:02.906Z,95.1
2017-10-27T02:44:02.038Z,95.1
2017-10-27T02:45:01.320Z,94.8
2017-10-27T02:46:00.365Z,95.2
2017-10-27T02:46:59.898Z,95.2
2017-10-27T02:47:59.041Z,95.5
2017-10-27T02:48:58.176Z,95.6
2017-10-27T02:49:57.187Z,95.7
2017-10-27T02:50:56.483Z,95.8
2017-10-27T02:51:55.778Z,95.4
2017-10-27T02:52:54.784Z,95.5
2017-10-27T02:53:54.065Z,95.8
2017-10-27T02:54:52.982Z,95.8
2017-10-27T02:55:52.154Z,95.8
2017-10-27T02:56:51.287Z,96.1
2017-10-27T02:57:50.715Z,95.9
2017-10-27T02:58:49.851Z,94.7
2017-10-27T02:59:49.009Z,94.3
2017-10-27T03:00:47.775Z,94.2
2017-10-27T03:01:47.281Z,94.3
2017-10-27T03:02:46.415Z,94.4
2017-10-27T03:03:45.326Z,92.6
2017-10-27T03:04:44.858Z,92.5
2017-10-27T03:05:43.866Z,93.5
2017-10-27T03:06:43.160Z,93.4
2017-10-27T03:07:13.350Z,93.4
2017-10-27T03:07:44.173Z,93.5
2017-10-27T03:08:14.258Z,93.5
2017-10-27T03:08:44.599Z,93.8
2017-10-27T03:09:14.918Z,93.8
2017-10-27T03:09:45.373Z,94.2
2017-10-27T03:10:39.981Z,93.7
2017-10-27T03:11:38.627Z,94.3
2017-10-27T03:12:38.269Z,92.8
2017-10-27T03:13:37.283Z,92.7
2017-10-27T03:14:36.563Z,93.3
2017-10-27T03:15:35.712Z,93.3
2017-10-27T03:16:34.858Z,92.5
2017-10-27T03:17:34.140Z,92.7
2017-10-27T03:18:33.148Z,93.4
2017-10-27T03:19:32.160Z,93.8
2017-10-27T03:20:31.564Z,94.2
2017-10-27T03:21:30.443Z,94.3
2017-10-27T03:22:29.447Z,93
2017-10-27T03:23:28.576Z,93
2017-10-27T03:24:27.714Z,92.7
2017-10-27T03:25:27.213Z,92.7
2017-10-27T03:27:25.499Z,92.9
2017-10-27T03:28:24.635Z,93.3
2017-10-27T03:29:23.649Z,93.5
2017-10-27T03:30:22.799Z,94
2017-10-27T03:31:22.068Z,94.2
2017-10-27T03:32:21.075Z,94.1
2017-10-27T03:33:20.450Z,94.4
2017-10-27T03:34:19.459Z,94.2
2017-10-27T03:35:18.866Z,94.1
2017-10-27T03:36:17.866Z,94.1
2017-10-27T03:37:17.156Z,93.9
2017-10-27T03:38:16.166Z,93.6
2017-10-27T03:39:15.540Z,93
2017-10-27T03:40:14.673Z,93.7
2017-10-27T03:41:13.680Z,93.9
2017-10-27T03:42:12.927Z,94
2017-10-27T03:43:11.927Z,94.2
2017-10-27T03:45:10.325Z,94.2
2017-10-27T03:46:09.614Z,94.3
2017-10-27T03:47:08.877Z,94.2
2017-10-27T03:48:07.511Z,93.9
2017-10-27T03:49:06.905Z,94.1
2017-10-27T03:50:06.044Z,94.5
2017-10-27T03:51:05.053Z,94.3
2017-10-27T03:52:04.556Z,94.3
2017-10-27T03:53:03.565Z,94.3
2017-10-27T03:53:34.014Z,94.3
2017-10-27T03:54:04.329Z,94.7
2017-10-27T03:54:34.884Z,94.7
2017-10-27T03:56:00.931Z,94.6
2017-10-27T03:56:59.951Z,94.5
2017-10-27T03:57:59.097Z,94.5
2017-10-27T03:58:58.256Z,94.7
2017-10-27T03:59:57.632Z,94.9
2017-10-27T04:00:56.910Z,94.7
2017-10-27T04:01:55.917Z,94.6
2017-10-27T04:02:54.924Z,94.8
2017-10-27T04:03:25.266Z,94.8
2017-10-27T04:03:55.585Z,94.8
2017-10-27T04:04:26.044Z,94.8
2017-10-27T04:05:52.860Z,94.6
2017-10-27T04:06:51.731Z,93.6
2017-10-27T04:07:50.740Z,93.8
2017-10-27T04:08:49.871Z,93.2
2017-10-27T04:09:49.008Z,93.6
2017-10-27T04:10:48.279Z,93
2017-10-27T04:11:47.545Z,93
2017-10-27T04:12:46.416Z,93.2
2017-10-27T04:13:45.921Z,93.7
2017-10-27T04:14:45.047Z,93.8
2017-10-27T04:15:44.181Z,93.4
2017-10-27T04:16:43.183Z,92.6
2017-10-27T04:17:42.558Z,93.3
2017-10-27T04:18:41.331Z,92.6
2017-10-27T04:19:40.850Z,92.3
2017-10-27T04:20:39.850Z,91.6
2017-10-27T04:22:38.125Z,91.7
2017-10-27T04:23:37.502Z,91.9
2017-10-27T04:24:36.771Z,91.9
2017-10-27T04:25:35.777Z,91.7
2017-10-27T04:26:35.051Z,92
2017-10-27T04:27:33.921Z,91
2017-10-27T04:28:33.306Z,91.6
2017-10-27T04:29:32.440Z,91.8
2017-10-27T04:30:31.582Z,92.1
2017-10-27T04:31:30.716Z,91.8
2017-10-27T04:32:29.726Z,92
2017-10-27T04:33:29.132Z,91.9
2017-10-27T04:34:27.785Z,92
2017-10-27T04:35:27.434Z,91.9
2017-10-27T04:36:26.574Z,91.2
2017-10-27T04:38:24.586Z,91
2017-10-27T04:39:23.724Z,90.9
2017-10-27T04:40:22.739Z,91.6
2017-10-27T04:41:22.244Z,91.5
2017-10-27T04:42:21.010Z,91.3
2017-10-27T04:44:19.778Z,90.6
2017-10-27T04:44:50.373Z,90.6
2017-10-27T04:45:20.453Z,90.8
2017-10-27T04:45:51.146Z,90.8
2017-10-27T04:46:21.859Z,90.8
2017-10-27T04:46:52.179Z,90.8
2017-10-27T04:48:16.221Z,90.9
2017-10-27T04:49:15.220Z,90.6
2017-10-27T04:50:14.484Z,89.6
2017-10-27T04:51:13.619Z,90.1
2017-10-27T04:52:12.754Z,89.3
2017-10-27T04:53:12.269Z,90.4
2017-10-27T04:54:11.414Z,90.3
2017-10-27T04:55:10.561Z,89.9
2017-10-27T04:56:09.595Z,89.8
2017-10-27T04:56:39.914Z,89.8
2017-10-27T04:57:10.498Z,89.5
2017-10-27T04:57:40.829Z,89.5
2017-10-27T04:58:11.277Z,88.9
2017-10-27T04:59:06.882Z,88.6
2017-10-27T05:00:06.029Z,88.7
2017-10-27T05:01:05.317Z,88.8
2017-10-27T05:02:04.306Z,89.4
2017-10-27T05:03:03.445Z,88.6
2017-10-27T05:04:02.866Z,88.8
2017-10-27T05:05:01.886Z,89
2017-10-27T05:06:01.178Z,89.5
2017-10-27T05:07:00.463Z,88.8
2017-10-27T05:07:59.271Z,89.6
2017-10-27T05:08:58.540Z,88.4
2017-10-27T05:09:57.417Z,89.3
2017-10-27T05:10:56.694Z,89
2017-10-27T05:11:55.971Z,87.8
2017-10-27T05:12:54.851Z,88.2
2017-10-27T05:13:54.499Z,88.6
2017-10-27T05:14:53.406Z,88.3
2017-10-27T05:15:52.286Z,88.9
2017-10-27T05:16:51.683Z,88.3
2017-10-27T05:17:50.689Z,89
2017-10-27T05:18:49.685Z,88.8
2017-10-27T05:19:49.345Z,88.5
2017-10-27T05:20:47.983Z,88.4
2017-10-27T05:21:47.251Z,89.1
2017-10-27T05:22:46.627Z,89
2017-10-27T05:23:45.761Z,88.1
2017-10-27T05:24:44.896Z,87.3
2017-10-27T05:25:43.770Z,87.7
2017-10-27T05:26:43.148Z,87.8
2017-10-27T05:27:13.734Z,87.8
2017-10-27T05:27:43.922Z,87.6
2017-10-27T05:28:41.282Z,88.3
2017-10-27T05:29:40.940Z,87.6
2017-10-27T05:30:39.569Z,87.4
2017-10-27T05:31:39.102Z,88
2017-10-27T05:32:38.244Z,88
2017-10-27T05:33:37.384Z,88
2017-10-27T05:34:36.659Z,88.1
2017-10-27T05:35:35.528Z,88
2017-10-27T05:36:34.425Z,88.1
2017-10-27T05:37:33.795Z,88.2
2017-10-27T05:38:32.664Z,86.8
2017-10-27T05:39:32.170Z,87.5
2017-10-27T05:40:31.546Z,88.1
2017-10-27T05:41:30.343Z,87.9
2017-10-27T05:43:28.864Z,87.2
2017-10-27T05:44:27.874Z,86.8
2017-10-27T05:45:27.033Z,87.1
2017-10-27T05:46:26.308Z,87.1
2017-10-27T05:47:25.448Z,87.4
2017-10-27T05:48:24.230Z,87.3
2017-10-27T05:49:23.507Z,87.4
2017-10-27T05:50:22.776Z,87.5
2017-10-27T05:51:22.052Z,86.9
2017-10-27T05:52:20.799Z,87.6
2017-10-27T05:53:20.435Z,87.3
2017-10-27T05:54:19.077Z,88.2
2017-10-27T05:55:18.727Z,87.9
2017-10-27T05:57:16.491Z,88.3
2017-10-27T05:58:16.132Z,87
2017-10-27T05:59:14.767Z,88.3
2017-10-27T06:01:13.548Z,87.9
2017-10-27T06:02:12.691Z,88
2017-10-27T06:03:11.696Z,87.3
2017-10-27T06:04:10.970Z,86.7
2017-10-27T06:05:09.878Z,86.9
2017-10-27T06:06:09.017Z,86.9
2017-10-27T06:07:08.285Z,87
2017-10-27T06:08:07.573Z,86.8
2017-10-27T06:09:06.361Z,87
2017-10-27T06:10:05.511Z,87.6
2017-10-27T06:11:05.016Z,87.1
2017-10-27T06:12:04.144Z,86.9
2017-10-27T06:13:03.416Z,87.3
2017-10-27T06:14:02.177Z,86.4
2017-10-27T06:15:01.453Z,86.8
2017-10-27T06:16:00.456Z,86.6
2017-10-27T06:16:59.591Z,86.2
2017-10-27T06:17:58.763Z,85.9
2017-10-27T06:18:58.140Z,86.2
2017-10-27T06:19:57.031Z,86.1
2017-10-27T06:20:56.412Z,86.5
2017-10-27T06:21:55.194Z,87.1
2017-10-27T06:22:54.738Z,87.2
2017-10-27T06:23:53.607Z,88
2017-10-27T06:24:53.122Z,88.2
2017-10-27T06:25:52.124Z,88.8
2017-10-27T06:26:51.397Z,88.9
2017-10-27T06:27:50.267Z,89.4
2017-10-27T06:28:49.269Z,89.8
2017-10-27T06:29:48.789Z,88.1
2017-10-27T06:30:47.691Z,88.8
2017-10-27T06:31:46.969Z,88.5
2017-10-27T06:32:17.309Z,88.5
2017-10-27T06:33:45.542Z,88.2
2017-10-27T06:34:44.432Z,88.3
2017-10-27T06:35:43.440Z,89
2017-10-27T06:36:42.809Z,87.6
2017-10-27T06:37:41.828Z,87.2
2017-10-27T06:38:41.233Z,88
2017-10-27T06:39:40.149Z,87.6
2017-10-27T06:40:39.290Z,86.5
2017-10-27T06:41:38.689Z,86.8
2017-10-27T06:42:37.463Z,87.4
2017-10-27T06:43:36.614Z,87.7
2017-10-27T06:44:35.754Z,86.6
2017-10-27T06:45:34.774Z,86.2
2017-10-27T06:47:33.325Z,86.8
2017-10-27T06:48:32.385Z,86.7
2017-10-27T06:49:31.530Z,86.3
2017-10-27T06:50:30.668Z,86.8
2017-10-27T06:51:29.811Z,85.2
2017-10-27T06:52:28.814Z,86.4
2017-10-27T06:53:28.223Z,86
2017-10-27T06:54:27.098Z,83.6
2017-10-27T06:55:26.494Z,85.1
2017-10-27T06:56:25.874Z,85
2017-10-27T06:57:24.759Z,83.9
2017-10-27T06:58:23.763Z,84.8
2017-10-27T06:59:22.766Z,85.4
2017-10-27T07:00:22.542Z,84.3
2017-10-27T07:01:21.182Z,84.3
2017-10-27T07:02:20.690Z,84.5
2017-10-27T07:03:19.822Z,84.1
2017-10-27T07:03:50.163Z,84.1
2017-10-27T07:05:18.126Z,85
2017-10-27T07:06:17.400Z,84.8
2017-10-27T07:07:16.300Z,84.7
2017-10-27T07:08:15.569Z,84.7
2017-10-27T07:09:14.863Z,84.5
2017-10-27T07:10:13.869Z,84.8
2017-10-27T07:11:13.000Z,85.5
2017-10-27T07:12:12.268Z,85.4
2017-10-27T07:13:11.043Z,85.4
2017-10-27T07:14:10.319Z,84.9
2017-10-27T07:15:09.347Z,85.1
2017-10-27T07:16:08.762Z,85.4
2017-10-27T07:17:07.903Z,85.3
2017-10-27T07:18:07.040Z,85.4
2017-10-27T07:19:05.910Z,85.8
2017-10-27T07:20:05.445Z,85.5
2017-10-27T07:21:04.462Z,85.1
2017-10-27T07:22:03.597Z,85.1
2017-10-27T07:23:02.747Z,85.5
2017-10-27T07:24:01.515Z,85.2
2017-10-27T07:25:01.033Z,85
2017-10-27T07:26:00.040Z,85.2
2017-10-27T07:26:58.916Z,85.5
2017-10-27T07:27:58.308Z,85.5
2017-10-27T07:28:57.180Z,86.1
2017-10-27T07:29:56.688Z,85.6
2017-10-27T07:31:54.714Z,84.9
2017-10-27T07:32:54.337Z,84.6
2017-10-27T07:33:53.077Z,85.1
2017-10-27T07:34:52.215Z,84.9
2017-10-27T07:35:51.495Z,84.9
2017-10-27T07:36:50.632Z,85.1
2017-10-27T07:37:49.633Z,85.1
2017-10-27T07:38:48.634Z,85.3
2017-10-27T07:39:48.135Z,85.8
2017-10-27T07:40:47.274Z,85.5
2017-10-27T07:41:46.283Z,85.7
2017-10-27T07:42:45.283Z,85.8
2017-10-27T07:43:44.810Z,85.9
2017-10-27T07:44:43.815Z,86
2017-10-27T07:46:41.965Z,86.2
2017-10-27T07:47:41.479Z,86.3
2017-10-27T07:48:40.255Z,86.4
2017-10-27T07:49:39.263Z,86.1
2017-10-27T07:50:38.538Z,86.1
2017-10-27T07:51:37.675Z,86.4
2017-10-27T07:52:08.297Z,86.4
2017-10-27T07:52:38.733Z,86.1
2017-10-27T07:53:36.124Z,85.8
2017-10-27T07:54:35.397Z,85.9
2017-10-27T07:56:33.543Z,85.4
2017-10-27T07:57:32.550Z,85.8
2017-10-27T07:58:31.685Z,86
2017-10-27T07:59:30.971Z,85.4
2017-10-27T08:00:30.242Z,85.5
2017-10-27T08:01:29.110Z,84.7
2017-10-27T08:02:28.115Z,85.2
2017-10-27T08:03:27.659Z,85
2017-10-27T08:04:26.798Z,85.1
2017-10-27T08:05:25.936Z,85.4
2017-10-27T08:06:24.711Z,85
2017-10-27T08:07:23.850Z,85.1
2017-10-27T08:08:23.262Z,85.2
2017-10-27T08:09:22.631Z,85.3
2017-10-27T08:10:21.756Z,84.6
2017-10-27T08:11:21.025Z,84.5
2017-10-27T08:12:19.804Z,85
2017-10-27T08:13:19.085Z,84
2017-10-27T08:14:18.355Z,84.4
2017-10-27T08:15:17.631Z,83.9
2017-10-27T08:16:16.533Z,83.3
2017-10-27T08:17:15.938Z,84.4
2017-10-27T08:18:14.581Z,84.1
2017-10-27T08:19:14.211Z,84
2017-10-27T08:20:13.215Z,82.8
2017-10-27T08:21:12.235Z,83.5
2017-10-27T08:22:11.513Z,83.3
2017-10-27T08:23:10.784Z,83.2
2017-10-27T08:24:09.782Z,83.3
2017-10-27T08:26:07.933Z,83
2017-10-27T08:27:06.948Z,83.5
2017-10-27T08:28:06.484Z,84
2017-10-27T08:29:05.617Z,84.3
2017-10-27T08:30:04.523Z,83.4
2017-10-27T08:31:03.934Z,83.5
2017-10-27T08:32:02.807Z,84
2017-10-27T08:32:33.263Z,84
2017-10-27T08:33:03.714Z,83.9
2017-10-27T08:33:34.553Z,83.9
2017-10-27T08:34:05.004Z,84.2
2017-10-27T08:34:35.482Z,84.2
2017-10-27T08:35:59.367Z,83.4
2017-10-27T08:36:58.654Z,83.6
2017-10-27T08:37:58.166Z,84.2
2017-10-27T08:38:57.069Z,83.4
2017-10-27T08:39:56.340Z,83.6
2017-10-27T08:40:55.349Z,82.7
2017-10-27T08:41:54.719Z,82.7
2017-10-27T08:42:53.861Z,82.9
2017-10-27T08:43:52.859Z,83.6
2017-10-27T08:44:51.895Z,81.8
2017-10-27T08:45:51.163Z,82.8
2017-10-27T08:46:50.170Z,82.8
2017-10-27T08:47:49.698Z,82.4
2017-10-27T08:48:48.701Z,82.4
2017-10-27T08:49:47.703Z,81.7
2017-10-27T08:50:46.875Z,82.4
2017-10-27T08:51:46.412Z,82.1
2017-10-27T08:53:44.183Z,82.5
2017-10-27T08:54:43.853Z,82.4
2017-10-27T08:55:42.483Z,82.2
2017-10-27T08:56:41.854Z,82.2
2017-10-27T08:57:40.858Z,82.3
2017-10-27T08:58:40.125Z,82.3
2017-10-27T08:59:39.388Z,81.6
2017-10-27T09:00:38.520Z,82
2017-10-27T09:01:37.522Z,81.8
2017-10-27T09:02:37.031Z,81.6
2017-10-27T09:03:35.911Z,81.6
2017-10-27T09:04:35.444Z,81.7
2017-10-27T09:05:34.213Z,81.6
2017-10-27T09:06:33.215Z,82.1
2017-10-27T09:07:32.858Z,82.3
2017-10-27T09:08:32.001Z,82.3
2017-10-27T09:09:31.145Z,81.8
2017-10-27T09:10:30.144Z,82.2
2017-10-27T09:11:29.314Z,81
2017-10-27T09:12:28.609Z,80.8
2017-10-27T09:13:27.616Z,80.2
2017-10-27T09:14:26.747Z,80.7
2017-10-27T09:15:26.020Z,80
2017-10-27T09:16:25.296Z,80.1
2017-10-27T09:17:24.303Z,80.1
2017-10-27T09:18:23.703Z,80.2
2017-10-27T09:19:22.465Z,80.5
2017-10-27T09:20:21.602Z,79.9
2017-10-27T09:21:21.021Z,80
2017-10-27T09:22:20.154Z,80
2017-10-27T09:23:19.549Z,79.9
2017-10-27T09:24:18.319Z,80.4
2017-10-27T09:25:17.327Z,79.7
2017-10-27T09:26:16.844Z,79.3
2017-10-27T09:27:15.851Z,79.7
2017-10-27T09:28:15.251Z,79.2
2017-10-27T09:29:14.026Z,79.5
2017-10-27T09:30:13.293Z,80
2017-10-27T09:31:12.560Z,80
2017-10-27T09:32:11.835Z,80.3
2017-10-27T09:33:10.835Z,80.4
2017-10-27T09:34:09.837Z,79.7
2017-10-27T09:35:08.989Z,79.6
2017-10-27T09:36:08.631Z,79.3
2017-10-27T09:37:07.402Z,79.2
2017-10-27T09:38:06.536Z,77.7
2017-10-27T09:39:05.678Z,78.2
2017-10-27T09:40:05.318Z,78.6
2017-10-27T09:41:03.950Z,78.3
2017-10-27T09:42:03.601Z,77.8
2017-10-27T09:43:02.343Z,78.5
2017-10-27T09:44:01.852Z,77.7
2017-10-27T09:45:00.920Z,77.7
2017-10-27T09:46:00.197Z,77.3
2017-10-27T09:46:59.347Z,76.8
2017-10-27T09:47:58.251Z,76.7
2017-10-27T09:48:57.526Z,76.7
2017-10-27T09:50:55.688Z,76.2
2017-10-27T09:51:54.827Z,76.3
2017-10-27T09:52:54.236Z,76.3
2017-10-27T09:53:53.367Z,76.4
2017-10-27T09:54:52.614Z,76.4
2017-10-27T09:55:51.751Z,76.7
2017-10-27T09:56:50.625Z,76.3
2017-10-27T09:57:50.301Z,76.5
2017-10-27T09:58:49.303Z,76.9
2017-10-27T09:59:48.196Z,76.7
2017-10-27T10:00:47.601Z,76.6
2017-10-27T10:01:46.385Z,76.5
2017-10-27T10:02:46.152Z,76
2017-10-27T10:03:44.931Z,76.2
2017-10-27T10:04:44.314Z,76.8
2017-10-27T10:05:43.444Z,75.8
2017-10-27T10:06:42.312Z,75.7
2017-10-27T10:07:41.857Z,75.7
2017-10-27T10:08:40.853Z,75.5
2017-10-27T10:09:39.855Z,75.7
2017-10-27T10:10:10.180Z,75.7
2017-10-27T10:10:40.754Z,75.8
2017-10-27T10:11:11.454Z,75.8
2017-10-27T10:12:37.492Z,75.8
2017-10-27T10:13:36.640Z,76.1
2017-10-27T10:14:35.906Z,75.1
2017-10-27T10:15:35.047Z,74.3
2017-10-27T10:16:34.292Z,74.1
2017-10-27T10:17:33.448Z,74.2
2017-10-27T10:18:32.856Z,74.6
2017-10-27T10:19:31.629Z,74.3
2017-10-27T10:20:30.766Z,74.1
2017-10-27T10:21:01.353Z,74.1
2017-10-27T10:21:31.805Z,74.2
2017-10-27T10:22:02.248Z,74.2
2017-10-27T10:23:28.321Z,73.3
2017-10-27T10:25:26.978Z,73.6
2017-10-27T10:26:25.853Z,73.6
2017-10-27T10:27:25.121Z,73.2
2017-10-27T10:28:24.526Z,74.1
2017-10-27T10:29:23.671Z,73.5
2017-10-27T10:30:22.811Z,73.8
2017-10-27T10:31:21.686Z,73.6
2017-10-27T10:32:21.210Z,73.5
2017-10-27T10:33:20.492Z,73
2017-10-27T10:34:19.130Z,73.3
2017-10-27T10:35:18.266Z,73.2
2017-10-27T10:36:17.649Z,73.4
2017-10-27T10:37:16.657Z,73.4
2017-10-27T10:38:15.940Z,73.8
2017-10-27T10:39:15.576Z,73.7
2017-10-27T10:40:14.346Z,73.6
2017-10-27T10:41:13.491Z,73.7
2017-10-27T10:42:12.631Z,73.5
2017-10-27T10:43:11.875Z,73.2
2017-10-27T10:44:10.873Z,73.4
2017-10-27T10:45:10.024Z,73.1
2017-10-27T10:46:09.303Z,73
2017-10-27T10:47:08.427Z,73.6
2017-10-27T10:48:08.067Z,72
2017-10-27T10:49:07.067Z,71.4
2017-10-27T10:50:06.202Z,71.4
2017-10-27T10:51:05.478Z,71.5
2017-10-27T10:52:04.613Z,72
2017-10-27T10:52:34.933Z,72
2017-10-27T10:53:05.515Z,70.9
2017-10-27T10:53:35.964Z,70.9
2017-10-27T10:54:06.284Z,71
2017-10-27T10:55:02.132Z,71.1
2017-10-27T10:56:01.002Z,71
2017-10-27T10:57:00.508Z,70.7
2017-10-27T10:57:59.644Z,70.8
2017-10-27T10:58:59.035Z,70.4
2017-10-27T10:59:57.796Z,71
2017-10-27T11:00:57.170Z,71.7
2017-10-27T11:01:56.179Z,72.2
2017-10-27T11:02:26.498Z,72.2
2017-10-27T11:02:57.189Z,72.7
2017-10-27T11:03:27.370Z,72.7
2017-10-27T11:03:57.954Z,72.9
2017-10-27T11:04:28.531Z,72.9
2017-10-27T11:05:53.059Z,73.9
2017-10-27T11:06:52.192Z,74.7
2017-10-27T11:07:51.056Z,74.9
2017-10-27T11:08:50.822Z,74.6
2017-10-27T11:09:49.648Z,74.6
2017-10-27T11:10:49.032Z,74.5
2017-10-27T11:11:48.092Z,74.9
2017-10-27T11:12:47.004Z,75.1
2017-10-27T11:13:46.287Z,75.4
2017-10-27T11:15:44.915Z,74.6
2017-10-27T11:16:43.919Z,74.3
2017-10-27T11:17:43.188Z,74.2
2017-10-27T11:18:42.069Z,73.7
2017-10-27T11:19:41.202Z,73.9
2017-10-27T11:20:40.344Z,73.3
2017-10-27T11:21:39.890Z,73.5
2017-10-27T11:22:39.046Z,73.9
2017-10-27T11:23:38.317Z,74.4
2017-10-27T11:24:37.457Z,74.7
2017-10-27T11:25:36.460Z,74.4
2017-10-27T11:26:35.740Z,74.6
2017-10-27T11:27:34.616Z,74.5
2017-10-27T11:28:33.752Z,74.5
2017-10-27T11:29:33.145Z,74.7
2017-10-27T11:30:32.141Z,74.4
2017-10-27T11:31:31.644Z,74.8
2017-10-27T11:32:30.552Z,74.4
2017-10-27T11:33:29.817Z,74.1
2017-10-27T11:34:28.958Z,74.2
2017-10-27T11:35:28.332Z,73.9
2017-10-27T11:36:27.122Z,74.4
2017-10-27T11:37:26.633Z,74.5
2017-10-27T11:38:25.872Z,74.7
2017-10-27T11:39:24.875Z,74.3
2017-10-27T11:40:24.148Z,73.4
2017-10-27T11:41:23.155Z,73.7
2017-10-27T11:42:22.294Z,74
2017-10-27T11:43:21.535Z,73.6
2017-10-27T11:43:52.123Z,73.6
2017-10-27T11:45:19.818Z,73.6
2017-10-27T11:46:19.316Z,74.2
2017-10-27T11:47:18.324Z,73.4
2017-10-27T11:48:17.599Z,73.7
2017-10-27T11:49:16.476Z,73.9
2017-10-27T11:50:15.751Z,74.1
2017-10-27T11:51:15.128Z,74.2
2017-10-27T11:52:14.004Z,75.6
2017-10-27T11:53:13.521Z,76.8
2017-10-27T11:54:12.522Z,77.1
2017-10-27T11:55:11.657Z,79.2
2017-10-27T11:56:10.921Z,79.7
2017-10-27T11:57:10.198Z,79.6
2017-10-27T11:58:09.203Z,80.2
2017-10-27T11:59:08.219Z,78.7
2017-10-27T12:00:07.370Z,78.5
2017-10-27T12:01:06.503Z,78.6
2017-10-27T12:02:06.037Z,78.9
2017-10-27T12:04:04.424Z,78.7
2017-10-27T12:05:03.296Z,79.4
2017-10-27T12:06:02.807Z,78.1
2017-10-27T12:07:01.832Z,79
2017-10-27T12:08:00.835Z,78.9
2017-10-27T12:09:00.106Z,78.7
2017-10-27T12:09:59.117Z,78.2
2017-10-27T12:10:58.357Z,78.2
2017-10-27T12:11:57.732Z,77.6
2017-10-27T12:12:56.869Z,77.9
2017-10-27T12:13:56.023Z,76.7
2017-10-27T12:14:55.041Z,76.5
2017-10-27T12:15:54.683Z,75.1
2017-10-27T12:16:53.446Z,75
2017-10-27T12:17:52.591Z,74.9
2017-10-27T12:18:52.294Z,74.8
2017-10-27T12:19:50.940Z,74.7
2017-10-27T12:20:50.203Z,74.9
2017-10-27T12:21:49.207Z,74.4
2017-10-27T12:22:48.716Z,74.5
2017-10-27T12:24:46.735Z,74.5
2017-10-27T12:25:46.255Z,75
2017-10-27T12:26:45.127Z,75.2
2017-10-27T12:27:44.666Z,76.5
2017-10-27T12:28:43.670Z,78.7
2017-10-27T12:29:14.497Z,78.7
2017-10-27T12:30:41.816Z,80.3
2017-10-27T12:31:41.092Z,82.9
2017-10-27T12:32:40.094Z,84.3
2017-10-27T12:33:39.365Z,85.3
2017-10-27T12:34:38.741Z,86.5
2017-10-27T12:35:38.010Z,87.9
2017-10-27T12:36:37.279Z,88.3
2017-10-27T12:37:36.150Z,89.1
2017-10-27T12:38:35.025Z,90
2017-10-27T12:39:05.336Z,90
2017-10-27T12:39:35.918Z,90.7
2017-10-27T12:40:06.371Z,90.7
2017-10-27T12:40:36.826Z,90.6
2017-10-27T12:41:06.910Z,90.6
2017-10-27T12:41:37.223Z,90.6
2017-10-27T12:42:32.201Z,91.1
2017-10-27T12:43:30.965Z,91.2
2017-10-27T12:44:30.234Z,90.5
2017-10-27T12:45:29.742Z,90.6
2017-10-27T12:46:28.884Z,90.3
2017-10-27T12:47:27.754Z,91
2017-10-27T12:48:26.900Z,90.8
2017-10-27T12:49:26.173Z,91.1
2017-10-27T12:51:24.427Z,90.6
2017-10-27T12:52:23.829Z,90.8
2017-10-27T12:53:22.861Z,90.2
2017-10-27T12:54:21.869Z,91.2
2017-10-27T12:55:21.018Z,90.4
2017-10-27T12:56:20.020Z,90
2017-10-27T12:57:19.458Z,89.9
2017-10-27T12:58:18.410Z,90.1
2017-10-27T12:59:17.546Z,89.6
2017-10-27T13:00:16.551Z,88.2
2017-10-27T13:01:16.090Z,87.9
2017-10-27T13:02:15.354Z,87.8
2017-10-27T13:03:14.365Z,88.3
2017-10-27T13:04:13.242Z,87.9
2017-10-27T13:05:12.674Z,87.7
2017-10-27T13:06:11.805Z,88.7
2017-10-27T13:07:10.678Z,88.2
2017-10-27T13:08:09.817Z,88
2017-10-27T13:09:09.088Z,88.4
2017-10-27T13:10:08.089Z,87.5
2017-10-27T13:11:07.481Z,87.1
2017-10-27T13:12:06.489Z,87.6